sensor_id;sensor_type;location;lat;lon;timestamp;pressure;altitude;pressure_sealevel;temperature;humidity
7200;BME280;3641;49.082;8.200;2022-11-20T00:00:18;99954.50;;;4.53;93.64
7200;BME280;3641;49.082;8.200;2022-11-20T00:02:44;99952.88;;;4.60;93.10
7200;BME280;3641;49.082;8.200;2022-11-20T00:05:11;99957.81;;;4.65;93.35
7200;BME280;3641;49.082;8.200;2022-11-20T00:07:37;99962.19;;;4.66;93.34
7200;BME280;3641;49.082;8.200;2022-11-20T00:10:05;99964.53;;;4.79;93.29
7200;BME280;3641;49.082;8.200;2022-11-20T00:12:33;99956.47;;;4.69;93.01
7200;BME280;3641;49.082;8.200;2022-11-20T00:14:59;99954.47;;;4.71;92.57
7200;BME280;3641;49.082;8.200;2022-11-20T00:17:26;99946.06;;;4.74;93.01
7200;BME280;3641;49.082;8.200;2022-11-20T00:19:52;99950.81;;;4.80;92.79
7200;BME280;3641;49.082;8.200;2022-11-20T00:22:21;99944.34;;;4.73;92.69
7200;BME280;3641;49.082;8.200;2022-11-20T00:24:48;99957.81;;;4.65;93.30
7200;BME280;3641;49.082;8.200;2022-11-20T00:27:14;99947.78;;;4.57;94.00
7200;BME280;3641;49.082;8.200;2022-11-20T00:29:42;99944.81;;;4.68;93.14
7200;BME280;3641;49.082;8.200;2022-11-20T00:32:09;99953.88;;;4.59;94.43
7200;BME280;3641;49.082;8.200;2022-11-20T00:34:35;99942.03;;;4.78;93.98
7200;BME280;3641;49.082;8.200;2022-11-20T00:37:02;99938.69;;;4.84;93.02
7200;BME280;3641;49.082;8.200;2022-11-20T00:39:28;99944.09;;;4.84;93.11
7200;BME280;3641;49.082;8.200;2022-11-20T00:41:55;99946.84;;;4.66;94.18
7200;BME280;3641;49.082;8.200;2022-11-20T00:44:21;99944.28;;;4.65;94.36
7200;BME280;3641;49.082;8.200;2022-11-20T00:46:49;99947.84;;;4.65;94.11
7200;BME280;3641;49.082;8.200;2022-11-20T00:49:16;99950.53;;;4.65;93.93
7200;BME280;3641;49.082;8.200;2022-11-20T00:51:42;99933.06;;;4.78;95.05
7200;BME280;3641;49.082;8.200;2022-11-20T00:54:09;99939.69;;;4.83;94.55
7200;BME280;3641;49.082;8.200;2022-11-20T00:56:35;99935.81;;;4.60;95.10
7200;BME280;3641;49.082;8.200;2022-11-20T00:59:02;99939.63;;;4.75;95.46
7200;BME280;3641;49.082;8.200;2022-11-20T01:01:29;99943.31;;;4.48;96.11
7200;BME280;3641;49.082;8.200;2022-11-20T01:03:58;99929.50;;;4.33;96.88
7200;BME280;3641;49.082;8.200;2022-11-20T01:06:27;99936.44;;;4.53;96.80
7200;BME280;3641;49.082;8.200;2022-11-20T01:08:55;99939.56;;;4.67;96.24
7200;BME280;3641;49.082;8.200;2022-11-20T01:11:24;99938.88;;;4.65;95.88
7200;BME280;3641;49.082;8.200;2022-11-20T01:13:51;99932.81;;;4.27;98.42
7200;BME280;3641;49.082;8.200;2022-11-20T01:16:19;99942.16;;;3.96;98.57
7200;BME280;3641;49.082;8.200;2022-11-20T01:18:47;99934.75;;;4.34;98.72
7200;BME280;3641;49.082;8.200;2022-11-20T01:21:17;99920.78;;;4.39;98.61
7200;BME280;3641;49.082;8.200;2022-11-20T01:23:45;99926.19;;;4.39;97.82
7200;BME280;3641;49.082;8.200;2022-11-20T01:26:14;99924.69;;;3.91;100.00
7200;BME280;3641;49.082;8.200;2022-11-20T01:28:41;99929.09;;;3.92;100.00
7200;BME280;3641;49.082;8.200;2022-11-20T01:31:13;99929.50;;;4.15;100.00
7200;BME280;3641;49.082;8.200;2022-11-20T01:33:40;99932.81;;;4.09;100.00
7200;BME280;3641;49.082;8.200;2022-11-20T01:36:07;99924.00;;;3.89;100.00
7200;BME280;3641;49.082;8.200;2022-11-20T01:38:35;99918.75;;;4.05;100.00
7200;BME280;3641;49.082;8.200;2022-11-20T01:41:03;99919.72;;;3.96;100.00
7200;BME280;3641;49.082;8.200;2022-11-20T01:43:30;99912.53;;;4.05;100.00
7200;BME280;3641;49.082;8.200;2022-11-20T01:46:04;99918.88;;;4.13;100.00
7200;BME280;3641;49.082;8.200;2022-11-20T01:48:35;99911.50;;;4.24;100.00
7200;BME280;3641;49.082;8.200;2022-11-20T01:51:04;99911.97;;;4.37;100.00
7200;BME280;3641;49.082;8.200;2022-11-20T01:53:36;99909.88;;;4.13;100.00
7200;BME280;3641;49.082;8.200;2022-11-20T01:56:05;99908.06;;;4.13;100.00
7200;BME280;3641;49.082;8.200;2022-11-20T01:58:35;99918.16;;;4.29;100.00
7200;BME280;3641;49.082;8.200;2022-11-20T02:01:04;99912.50;;;4.23;100.00
7200;BME280;3641;49.082;8.200;2022-11-20T02:03:31;99910.41;;;4.52;100.00
7200;BME280;3641;49.082;8.200;2022-11-20T02:06:03;99911.13;;;4.36;100.00
7200;BME280;3641;49.082;8.200;2022-11-20T02:08:30;99907.84;;;4.51;100.00
7200;BME280;3641;49.082;8.200;2022-11-20T02:10:58;99917.81;;;4.50;100.00
7200;BME280;3641;49.082;8.200;2022-11-20T02:13:25;99912.84;;;4.64;100.00
7200;BME280;3641;49.082;8.200;2022-11-20T02:16:12;99921.75;;;4.56;100.00
7200;BME280;3641;49.082;8.200;2022-11-20T02:18:39;99924.69;;;4.63;100.00
7200;BME280;3641;49.082;8.200;2022-11-20T02:21:09;99912.31;;;4.86;100.00
7200;BME280;3641;49.082;8.200;2022-11-20T02:26:13;99923.38;;;4.93;100.00
7200;BME280;3641;49.082;8.200;2022-11-20T02:28:42;99917.41;;;4.89;100.00
7200;BME280;3641;49.082;8.200;2022-11-20T02:31:08;99912.44;;;4.77;100.00
7200;BME280;3641;49.082;8.200;2022-11-20T02:33:35;99908.25;;;4.82;100.00
7200;BME280;3641;49.082;8.200;2022-11-20T02:36:02;99905.91;;;4.87;100.00
7200;BME280;3641;49.082;8.200;2022-11-20T02:38:28;99896.34;;;4.93;100.00
7200;BME280;3641;49.082;8.200;2022-11-20T02:40:55;99905.31;;;5.02;100.00
7200;BME280;3641;49.082;8.200;2022-11-20T02:43:23;99910.94;;;5.08;100.00
7200;BME280;3641;49.082;8.200;2022-11-20T02:45:49;99901.06;;;5.25;100.00
7200;BME280;3641;49.082;8.200;2022-11-20T02:48:16;99907.28;;;5.18;100.00
7200;BME280;3641;49.082;8.200;2022-11-20T02:50:42;99901.69;;;5.19;100.00
7200;BME280;3641;49.082;8.200;2022-11-20T02:53:09;99902.56;;;5.28;100.00
7200;BME280;3641;49.082;8.200;2022-11-20T02:55:35;99898.53;;;5.32;100.00
7200;BME280;3641;49.082;8.200;2022-11-20T02:58:02;99891.31;;;5.41;100.00
7200;BME280;3641;49.082;8.200;2022-11-20T03:00:30;99901.59;;;5.37;100.00
7200;BME280;3641;49.082;8.200;2022-11-20T03:02:57;99897.59;;;5.50;100.00
7200;BME280;3641;49.082;8.200;2022-11-20T03:05:23;99895.19;;;5.38;100.00
7200;BME280;3641;49.082;8.200;2022-11-20T03:07:50;99897.44;;;5.51;100.00
7200;BME280;3641;49.082;8.200;2022-11-20T03:10:16;99904.09;;;5.65;100.00
7200;BME280;3641;49.082;8.200;2022-11-20T03:12:43;99901.25;;;5.75;100.00
7200;BME280;3641;49.082;8.200;2022-11-20T03:15:10;99901.56;;;5.72;100.00
7200;BME280;3641;49.082;8.200;2022-11-20T03:17:38;99899.50;;;5.66;100.00
7200;BME280;3641;49.082;8.200;2022-11-20T03:20:06;99899.19;;;5.69;100.00
7200;BME280;3641;49.082;8.200;2022-11-20T03:22:34;99894.59;;;5.69;100.00
7200;BME280;3641;49.082;8.200;2022-11-20T03:25:00;99892.94;;;5.76;100.00
7200;BME280;3641;49.082;8.200;2022-11-20T03:27:27;99890.75;;;5.80;100.00
7200;BME280;3641;49.082;8.200;2022-11-20T03:29:57;99889.59;;;5.82;100.00
7200;BME280;3641;49.082;8.200;2022-11-20T03:32:24;99888.38;;;5.85;100.00
7200;BME280;3641;49.082;8.200;2022-11-20T03:34:51;99886.88;;;5.82;100.00
7200;BME280;3641;49.082;8.200;2022-11-20T03:37:18;99893.78;;;5.77;100.00
7200;BME280;3641;49.082;8.200;2022-11-20T03:39:44;99882.97;;;5.77;100.00
7200;BME280;3641;49.082;8.200;2022-11-20T03:42:11;99890.09;;;5.94;100.00
7200;BME280;3641;49.082;8.200;2022-11-20T03:44:51;99885.00;;;5.91;100.00
7200;BME280;3641;49.082;8.200;2022-11-20T03:47:18;99887.41;;;5.94;100.00
7200;BME280;3641;49.082;8.200;2022-11-20T03:49:44;99892.63;;;5.88;100.00
7200;BME280;3641;49.082;8.200;2022-11-20T03:52:12;99894.41;;;6.05;100.00
7200;BME280;3641;49.082;8.200;2022-11-20T03:54:39;99887.72;;;5.91;100.00
7200;BME280;3641;49.082;8.200;2022-11-20T03:57:05;99891.81;;;5.95;100.00
7200;BME280;3641;49.082;8.200;2022-11-20T03:59:32;99885.84;;;5.83;100.00
7200;BME280;3641;49.082;8.200;2022-11-20T04:01:58;99882.28;;;5.83;100.00
7200;BME280;3641;49.082;8.200;2022-11-20T04:04:25;99879.59;;;5.83;100.00
7200;BME280;3641;49.082;8.200;2022-11-20T04:06:51;99877.22;;;5.80;100.00
7200;BME280;3641;49.082;8.200;2022-11-20T04:09:19;99881.28;;;5.84;100.00
7200;BME280;3641;49.082;8.200;2022-11-20T04:11:46;99889.25;;;5.86;100.00
7200;BME280;3641;49.082;8.200;2022-11-20T04:14:14;99883.69;;;5.95;100.00
7200;BME280;3641;49.082;8.200;2022-11-20T04:16:41;99890.94;;;5.95;100.00
7200;BME280;3641;49.082;8.200;2022-11-20T04:19:10;99889.81;;;5.97;99.75
7200;BME280;3641;49.082;8.200;2022-11-20T04:21:37;99880.66;;;5.98;99.71
7200;BME280;3641;49.082;8.200;2022-11-20T04:24:04;99878.31;;;6.04;99.14
7200;BME280;3641;49.082;8.200;2022-11-20T04:26:33;99886.44;;;6.12;99.22
7200;BME280;3641;49.082;8.200;2022-11-20T04:29:00;99877.81;;;6.16;99.53
7200;BME280;3641;49.082;8.200;2022-11-20T04:31:28;99882.53;;;6.06;99.66
7200;BME280;3641;49.082;8.200;2022-11-20T04:33:58;99870.19;;;6.04;99.20
7200;BME280;3641;49.082;8.200;2022-11-20T04:36:26;99873.22;;;6.09;99.16
7200;BME280;3641;49.082;8.200;2022-11-20T04:38:54;99878.63;;;6.09;98.74
7200;BME280;3641;49.082;8.200;2022-11-20T04:41:22;99871.50;;;6.08;98.74
7200;BME280;3641;49.082;8.200;2022-11-20T04:43:52;99873.38;;;6.07;98.22
7200;BME280;3641;49.082;8.200;2022-11-20T04:46:24;99876.97;;;6.16;98.21
7200;BME280;3641;49.082;8.200;2022-11-20T04:48:51;99870.34;;;6.10;98.70
7200;BME280;3641;49.082;8.200;2022-11-20T04:51:18;99872.56;;;6.15;98.12
7200;BME280;3641;49.082;8.200;2022-11-20T04:53:45;99878.63;;;6.25;97.87
7200;BME280;3641;49.082;8.200;2022-11-20T04:56:13;99870.16;;;6.28;97.55
7200;BME280;3641;49.082;8.200;2022-11-20T04:58:40;99873.72;;;6.21;98.11
7200;BME280;3641;49.082;8.200;2022-11-20T05:01:10;99868.84;;;6.16;97.64
7200;BME280;3641;49.082;8.200;2022-11-20T05:03:37;99865.59;;;6.21;97.46
7200;BME280;3641;49.082;8.200;2022-11-20T05:06:05;99865.09;;;6.17;97.82
7200;BME280;3641;49.082;8.200;2022-11-20T05:08:32;99869.84;;;6.23;97.99
7200;BME280;3641;49.082;8.200;2022-11-20T05:11:00;99864.41;;;6.23;97.50
7200;BME280;3641;49.082;8.200;2022-11-20T05:13:27;99867.13;;;6.15;97.48
7200;BME280;3641;49.082;8.200;2022-11-20T05:15:54;99863.41;;;6.24;97.42
7200;BME280;3641;49.082;8.200;2022-11-20T05:18:22;99855.94;;;6.34;97.07
7200;BME280;3641;49.082;8.200;2022-11-20T05:20:54;99856.13;;;6.33;96.88
7200;BME280;3641;49.082;8.200;2022-11-20T05:23:21;99860.53;;;6.17;97.24
7200;BME280;3641;49.082;8.200;2022-11-20T05:25:48;99859.66;;;6.25;97.52
7200;BME280;3641;49.082;8.200;2022-11-20T05:28:14;99859.31;;;6.36;96.74
7200;BME280;3641;49.082;8.200;2022-11-20T05:30:40;99860.72;;;6.24;97.27
7200;BME280;3641;49.082;8.200;2022-11-20T05:33:07;99861.03;;;6.29;98.01
7200;BME280;3641;49.082;8.200;2022-11-20T05:35:35;99859.00;;;6.23;97.72
7200;BME280;3641;49.082;8.200;2022-11-20T05:38:02;99852.41;;;6.17;97.83
7200;BME280;3641;49.082;8.200;2022-11-20T05:40:28;99853.75;;;6.22;97.83
7200;BME280;3641;49.082;8.200;2022-11-20T05:42:55;99848.81;;;6.25;97.42
7200;BME280;3641;49.082;8.200;2022-11-20T05:45:21;99855.78;;;6.28;97.64
7200;BME280;3641;49.082;8.200;2022-11-20T05:47:48;99857.47;;;6.37;96.97
7200;BME280;3641;49.082;8.200;2022-11-20T05:50:15;99856.97;;;6.25;97.59
7200;BME280;3641;49.082;8.200;2022-11-20T05:52:43;99855.13;;;6.17;97.83
7200;BME280;3641;49.082;8.200;2022-11-20T05:55:09;99865.09;;;6.17;97.83
7200;BME280;3641;49.082;8.200;2022-11-20T05:57:36;99856.13;;;6.16;97.93
7200;BME280;3641;49.082;8.200;2022-11-20T06:00:03;99855.28;;;6.16;97.56
7200;BME280;3641;49.082;8.200;2022-11-20T06:02:30;99853.91;;;6.12;98.47
7200;BME280;3641;49.082;8.200;2022-11-20T06:04:56;99859.16;;;6.13;97.80
7200;BME280;3641;49.082;8.200;2022-11-20T06:07:23;99863.09;;;6.19;97.86
7200;BME280;3641;49.082;8.200;2022-11-20T06:09:51;99860.38;;;6.27;97.49
7200;BME280;3641;49.082;8.200;2022-11-20T06:12:17;99861.22;;;6.20;97.66
7200;BME280;3641;49.082;8.200;2022-11-20T06:14:44;99863.91;;;6.20;98.06
7200;BME280;3641;49.082;8.200;2022-11-20T06:17:10;99871.00;;;6.21;98.38
7200;BME280;3641;49.082;8.200;2022-11-20T06:19:37;99862.75;;;6.30;98.20
7200;BME280;3641;49.082;8.200;2022-11-20T06:22:03;99859.84;;;6.15;98.27
7200;BME280;3641;49.082;8.200;2022-11-20T06:24:30;99863.56;;;6.31;98.19
7200;BME280;3641;49.082;8.200;2022-11-20T06:26:58;99867.13;;;6.31;98.00
7200;BME280;3641;49.082;8.200;2022-11-20T06:29:24;99868.31;;;6.45;97.88
7200;BME280;3641;49.082;8.200;2022-11-20T06:31:51;99865.63;;;6.29;98.11
7200;BME280;3641;49.082;8.200;2022-11-20T06:34:17;99874.59;;;6.29;98.16
7200;BME280;3641;49.082;8.200;2022-11-20T06:36:44;99865.25;;;6.15;98.91
7200;BME280;3641;49.082;8.200;2022-11-20T06:39:10;99864.94;;;6.10;99.23
7200;BME280;3641;49.082;8.200;2022-11-20T06:41:37;99862.72;;;6.22;99.35
7200;BME280;3641;49.082;8.200;2022-11-20T06:44:05;99869.50;;;6.26;98.70
7200;BME280;3641;49.082;8.200;2022-11-20T06:46:31;99870.88;;;6.30;98.47
7200;BME280;3641;49.082;8.200;2022-11-20T06:48:58;99865.63;;;6.37;98.18
7200;BME280;3641;49.082;8.200;2022-11-20T06:51:25;99871.38;;;6.26;98.09
7200;BME280;3641;49.082;8.200;2022-11-20T06:53:51;99875.94;;;6.25;98.16
7200;BME280;3641;49.082;8.200;2022-11-20T06:56:18;99875.44;;;6.46;97.87
7200;BME280;3641;49.082;8.200;2022-11-20T06:58:44;99876.63;;;6.35;97.85
7200;BME280;3641;49.082;8.200;2022-11-20T07:01:13;99884.41;;;6.39;97.48
7200;BME280;3641;49.082;8.200;2022-11-20T07:03:42;99890.19;;;6.44;97.72
7200;BME280;3641;49.082;8.200;2022-11-20T07:06:08;99888.97;;;6.30;98.05
7200;BME280;3641;49.082;8.200;2022-11-20T07:08:36;99899.31;;;6.26;98.86
7200;BME280;3641;49.082;8.200;2022-11-20T07:11:05;99890.34;;;6.42;98.21
7200;BME280;3641;49.082;8.200;2022-11-20T07:13:32;99893.22;;;6.32;98.97
7200;BME280;3641;49.082;8.200;2022-11-20T07:15:59;99889.31;;;6.35;100.00
7200;BME280;3641;49.082;8.200;2022-11-20T07:18:30;99894.91;;;6.25;99.87
7200;BME280;3641;49.082;8.200;2022-11-20T07:21:00;99895.44;;;6.29;100.00
7200;BME280;3641;49.082;8.200;2022-11-20T07:23:26;99895.78;;;6.17;100.00
7200;BME280;3641;49.082;8.200;2022-11-20T07:25:53;99900.34;;;6.33;100.00
7200;BME280;3641;49.082;8.200;2022-11-20T07:28:19;99906.63;;;6.34;100.00
7200;BME280;3641;49.082;8.200;2022-11-20T07:30:49;99910.50;;;6.40;100.00
7200;BME280;3641;49.082;8.200;2022-11-20T07:33:16;99910.00;;;6.28;100.00
7200;BME280;3641;49.082;8.200;2022-11-20T07:35:44;99912.38;;;6.39;100.00
7200;BME280;3641;49.082;8.200;2022-11-20T07:38:11;99910.31;;;6.25;100.00
7200;BME280;3641;49.082;8.200;2022-11-20T07:40:37;99917.94;;;6.13;100.00
7200;BME280;3641;49.082;8.200;2022-11-20T07:43:04;99915.75;;;6.16;100.00
7200;BME280;3641;49.082;8.200;2022-11-20T07:45:30;99915.59;;;6.26;100.00
7200;BME280;3641;49.082;8.200;2022-11-20T07:47:57;99921.50;;;6.22;100.00
7200;BME280;3641;49.082;8.200;2022-11-20T07:50:23;99914.19;;;6.14;100.00
7200;BME280;3641;49.082;8.200;2022-11-20T07:52:51;99918.63;;;6.15;100.00
7200;BME280;3641;49.082;8.200;2022-11-20T07:55:18;99909.50;;;6.16;100.00
7200;BME280;3641;49.082;8.200;2022-11-20T07:57:44;99917.25;;;6.11;100.00
7200;BME280;3641;49.082;8.200;2022-11-20T08:00:12;99924.38;;;6.12;100.00
7200;BME280;3641;49.082;8.200;2022-11-20T08:02:39;99920.16;;;6.17;100.00
7200;BME280;3641;49.082;8.200;2022-11-20T08:05:07;99923.22;;;6.31;100.00
7200;BME280;3641;49.082;8.200;2022-11-20T08:07:37;99917.28;;;6.35;100.00
7200;BME280;3641;49.082;8.200;2022-11-20T08:10:06;99914.91;;;6.16;100.00
7200;BME280;3641;49.082;8.200;2022-11-20T08:12:33;99922.72;;;6.19;100.00
7200;BME280;3641;49.082;8.200;2022-11-20T08:15:17;99922.16;;;6.15;100.00
7200;BME280;3641;49.082;8.200;2022-11-20T08:17:50;99932.69;;;6.27;100.00
7200;BME280;3641;49.082;8.200;2022-11-20T08:20:17;99932.84;;;6.25;100.00
7200;BME280;3641;49.082;8.200;2022-11-20T08:22:43;99939.66;;;6.29;100.00
7200;BME280;3641;49.082;8.200;2022-11-20T08:25:21;99943.34;;;6.28;100.00
7200;BME280;3641;49.082;8.200;2022-11-20T08:27:47;99944.22;;;6.29;100.00
7200;BME280;3641;49.082;8.200;2022-11-20T08:30:14;99951.13;;;6.15;100.00
7200;BME280;3641;49.082;8.200;2022-11-20T08:32:41;99943.00;;;6.15;100.00
7200;BME280;3641;49.082;8.200;2022-11-20T08:35:08;99946.22;;;6.18;100.00
7200;BME280;3641;49.082;8.200;2022-11-20T08:37:34;99956.06;;;6.20;100.00
7200;BME280;3641;49.082;8.200;2022-11-20T08:40:03;99951.66;;;6.27;100.00
7200;BME280;3641;49.082;8.200;2022-11-20T08:42:32;99956.06;;;6.20;100.00
7200;BME280;3641;49.082;8.200;2022-11-20T08:44:58;99955.22;;;6.19;100.00
7200;BME280;3641;49.082;8.200;2022-11-20T08:47:25;99958.78;;;6.36;100.00
7200;BME280;3641;49.082;8.200;2022-11-20T08:49:51;99972.50;;;6.43;100.00
7200;BME280;3641;49.082;8.200;2022-11-20T08:52:18;99970.00;;;6.58;100.00
7200;BME280;3641;49.082;8.200;2022-11-20T08:54:44;99970.47;;;6.36;100.00
7200;BME280;3641;49.082;8.200;2022-11-20T08:57:11;99968.28;;;6.40;100.00
7200;BME280;3641;49.082;8.200;2022-11-20T08:59:39;99952.19;;;6.30;100.00
7200;BME280;3641;49.082;8.200;2022-11-20T09:02:06;99960.16;;;6.32;100.00
7200;BME280;3641;49.082;8.200;2022-11-20T09:04:32;99959.44;;;6.30;100.00
7200;BME280;3641;49.082;8.200;2022-11-20T09:07:00;99967.25;;;6.25;100.00
7200;BME280;3641;49.082;8.200;2022-11-20T09:09:26;99972.19;;;6.46;100.00
7200;BME280;3641;49.082;8.200;2022-11-20T09:11:53;99971.50;;;6.35;100.00
7200;BME280;3641;49.082;8.200;2022-11-20T09:14:19;99973.06;;;6.46;100.00
7200;BME280;3641;49.082;8.200;2022-11-20T09:16:47;99970.34;;;6.46;100.00
7200;BME280;3641;49.082;8.200;2022-11-20T09:19:14;99964.91;;;6.46;100.00
7200;BME280;3641;49.082;8.200;2022-11-20T09:21:41;99966.09;;;6.52;100.00
7200;BME280;3641;49.082;8.200;2022-11-20T09:24:07;99972.22;;;6.62;100.00
7200;BME280;3641;49.082;8.200;2022-11-20T09:26:34;99974.06;;;6.62;100.00
7200;BME280;3641;49.082;8.200;2022-11-20T09:29:00;99974.22;;;6.60;100.00
7200;BME280;3641;49.082;8.200;2022-11-20T09:31:27;99981.34;;;6.53;100.00
7200;BME280;3641;49.082;8.200;2022-11-20T09:33:55;99985.44;;;6.73;100.00
7200;BME280;3641;49.082;8.200;2022-11-20T09:36:21;99997.63;;;6.69;100.00
7200;BME280;3641;49.082;8.200;2022-11-20T09:38:48;99988.81;;;6.67;100.00
7200;BME280;3641;49.082;8.200;2022-11-20T09:41:31;99993.06;;;6.78;100.00
7200;BME280;3641;49.082;8.200;2022-11-20T09:44:05;99981.00;;;6.72;100.00
7200;BME280;3641;49.082;8.200;2022-11-20T09:46:38;99990.53;;;6.77;100.00
7200;BME280;3641;49.082;8.200;2022-11-20T09:49:23;99988.97;;;6.82;100.00
7200;BME280;3641;49.082;8.200;2022-11-20T09:51:57;99990.00;;;6.81;100.00
7200;BME280;3641;49.082;8.200;2022-11-20T09:54:27;99993.38;;;6.91;100.00
7200;BME280;3641;49.082;8.200;2022-11-20T09:56:59;99987.47;;;6.80;100.00
7200;BME280;3641;49.082;8.200;2022-11-20T09:59:36;99997.66;;;6.94;100.00
7200;BME280;3641;49.082;8.200;2022-11-20T10:02:15;99996.78;;;6.94;100.00
7200;BME280;3641;49.082;8.200;2022-11-20T10:04:47;99993.91;;;6.87;100.00
7200;BME280;3641;49.082;8.200;2022-11-20T10:07:19;99990.97;;;7.13;100.00
7200;BME280;3641;49.082;8.200;2022-11-20T10:09:51;99988.44;;;7.20;100.00
7200;BME280;3641;49.082;8.200;2022-11-20T10:12:24;99989.47;;;7.19;100.00
7200;BME280;3641;49.082;8.200;2022-11-20T10:15:01;99990.97;;;7.13;100.00
7200;BME280;3641;49.082;8.200;2022-11-20T10:17:55;99983.34;;;7.25;100.00
7200;BME280;3641;49.082;8.200;2022-11-20T10:20:30;99987.59;;;7.19;100.00
7200;BME280;3641;49.082;8.200;2022-11-20T10:23:15;99982.31;;;7.34;100.00
7200;BME280;3641;49.082;8.200;2022-11-20T10:25:53;99975.16;;;7.41;100.00
7200;BME280;3641;49.082;8.200;2022-11-20T10:28:39;99977.84;;;7.58;99.48
7200;BME280;3641;49.082;8.200;2022-11-20T10:31:30;99972.41;;;7.58;99.55
7200;BME280;3641;49.082;8.200;2022-11-20T10:34:01;99974.75;;;7.69;99.90
7200;BME280;3641;49.082;8.200;2022-11-20T10:36:34;99968.56;;;7.75;99.14
7200;BME280;3641;49.082;8.200;2022-11-20T10:39:06;99966.03;;;7.82;99.43
7200;BME280;3641;49.082;8.200;2022-11-20T10:41:40;99965.84;;;7.75;98.47
7200;BME280;3641;49.082;8.200;2022-11-20T10:44:12;99968.22;;;7.87;99.14
7200;BME280;3641;49.082;8.200;2022-11-20T10:47:01;99961.78;;;7.79;97.33
7200;BME280;3641;49.082;8.200;2022-11-20T10:49:27;99960.59;;;7.82;97.04
7200;BME280;3641;49.082;8.200;2022-11-20T10:52:00;99959.06;;;7.79;94.87
7200;BME280;3641;49.082;8.200;2022-11-20T10:54:35;99945.78;;;7.85;93.46
7200;BME280;3641;49.082;8.200;2022-11-20T10:57:12;99948.84;;;7.81;91.82
7200;BME280;3641;49.082;8.200;2022-11-20T10:59:55;99946.94;;;7.90;91.35
7200;BME280;3641;49.082;8.200;2022-11-20T11:02:32;99944.00;;;8.00;89.73
7200;BME280;3641;49.082;8.200;2022-11-20T11:05:08;99938.88;;;8.05;91.05
7200;BME280;3641;49.082;8.200;2022-11-20T11:07:38;99938.88;;;8.05;88.87
7200;BME280;3641;49.082;8.200;2022-11-20T11:10:15;99933.44;;;8.05;88.54
7200;BME280;3641;49.082;8.200;2022-11-20T11:12:46;99930.53;;;8.07;90.26
7200;BME280;3641;49.082;8.200;2022-11-20T11:15:24;99920.31;;;8.17;90.30
7200;BME280;3641;49.082;8.200;2022-11-20T11:17:51;99920.50;;;8.07;88.00
7200;BME280;3641;49.082;8.200;2022-11-20T11:20:19;99921.84;;;8.11;88.47
7200;BME280;3641;49.082;8.200;2022-11-20T11:22:49;99912.34;;;8.07;87.68
7200;BME280;3641;49.082;8.200;2022-11-20T11:25:25;99903.19;;;8.08;88.23
7200;BME280;3641;49.082;8.200;2022-11-20T11:27:54;99905.00;;;8.16;87.16
7200;BME280;3641;49.082;8.200;2022-11-20T11:30:23;99904.69;;;8.34;86.09
7200;BME280;3641;49.082;8.200;2022-11-20T11:32:50;99906.34;;;8.43;86.30
7200;BME280;3641;49.082;8.200;2022-11-20T11:35:22;99893.84;;;8.57;86.85
7200;BME280;3641;49.082;8.200;2022-11-20T11:37:51;99891.03;;;8.65;82.42
7200;BME280;3641;49.082;8.200;2022-11-20T11:40:21;99888.88;;;8.76;83.60
7200;BME280;3641;49.082;8.200;2022-11-20T11:42:53;99893.88;;;8.72;79.81
7200;BME280;3641;49.082;8.200;2022-11-20T11:45:21;99883.81;;;8.72;79.81
7200;BME280;3641;49.082;8.200;2022-11-20T11:47:48;99876.47;;;8.58;78.75
7200;BME280;3641;49.082;8.200;2022-11-20T11:50:19;99878.28;;;8.66;80.85
7200;BME280;3641;49.082;8.200;2022-11-20T11:53:03;99873.78;;;8.73;78.24
7200;BME280;3641;49.082;8.200;2022-11-20T11:55:35;99869.47;;;8.79;81.84
7200;BME280;3641;49.082;8.200;2022-11-20T11:58:20;99870.63;;;8.84;80.51
7200;BME280;3641;49.082;8.200;2022-11-20T12:00:56;99875.97;;;8.93;77.66
7200;BME280;3641;49.082;8.200;2022-11-20T12:03:28;99871.28;;;9.01;80.05
7200;BME280;3641;49.082;8.200;2022-11-20T12:05:57;99878.03;;;9.05;79.71
7200;BME280;3641;49.082;8.200;2022-11-20T12:08:31;99875.41;;;9.12;79.60
7200;BME280;3641;49.082;8.200;2022-11-20T12:11:05;99880.84;;;9.12;75.77
7200;BME280;3641;49.082;8.200;2022-11-20T12:13:42;99871.09;;;9.03;75.87
7200;BME280;3641;49.082;8.200;2022-11-20T12:16:13;99868.34;;;8.88;74.71
7200;BME280;3641;49.082;8.200;2022-11-20T12:18:41;99869.78;;;8.99;76.85
7200;BME280;3641;49.082;8.200;2022-11-20T12:21:18;99869.69;;;8.92;75.67
7200;BME280;3641;49.082;8.200;2022-11-20T12:23:59;99868.28;;;8.81;73.86
7200;BME280;3641;49.082;8.200;2022-11-20T12:26:43;99871.00;;;8.81;79.44
7200;BME280;3641;49.082;8.200;2022-11-20T12:29:19;99870.75;;;8.68;75.39
7200;BME280;3641;49.082;8.200;2022-11-20T12:32:02;99865.91;;;8.63;77.98
7200;BME280;3641;49.082;8.200;2022-11-20T12:34:43;99862.28;;;8.48;75.82
7200;BME280;3641;49.082;8.200;2022-11-20T12:37:21;99869.25;;;8.42;75.49
7200;BME280;3641;49.082;8.200;2022-11-20T12:39:55;99864.69;;;8.43;76.56
7200;BME280;3641;49.082;8.200;2022-11-20T12:42:46;99851.72;;;8.30;73.72
7200;BME280;3641;49.082;8.200;2022-11-20T12:45:46;99861.25;;;8.26;71.43
7200;BME280;3641;49.082;8.200;2022-11-20T12:48:29;99852.06;;;8.27;73.70
7200;BME280;3641;49.082;8.200;2022-11-20T12:51:17;99856.19;;;8.23;71.10
7200;BME280;3641;49.082;8.200;2022-11-20T12:53:58;99866.88;;;8.24;71.95
7200;BME280;3641;49.082;8.200;2022-11-20T12:56:34;99856.47;;;8.28;70.12
7200;BME280;3641;49.082;8.200;2022-11-20T12:59:19;99856.59;;;8.34;69.42
7200;BME280;3641;49.082;8.200;2022-11-20T13:01:52;99855.34;;;8.45;75.90
7200;BME280;3641;49.082;8.200;2022-11-20T13:07:13;99838.56;;;8.57;70.12
7200;BME280;3641;49.082;8.200;2022-11-20T13:09:42;99836.72;;;8.57;66.47
7200;BME280;3641;49.082;8.200;2022-11-20T13:12:14;99841.47;;;8.55;68.96
7200;BME280;3641;49.082;8.200;2022-11-20T13:14:45;99842.06;;;8.50;68.25
7200;BME280;3641;49.082;8.200;2022-11-20T13:17:18;99833.03;;;8.50;72.25
7200;BME280;3641;49.082;8.200;2022-11-20T13:19:51;99833.88;;;8.50;73.22
7200;BME280;3641;49.082;8.200;2022-11-20T13:22:24;99831.56;;;8.39;67.91
7200;BME280;3641;49.082;8.200;2022-11-20T13:24:51;99828.66;;;8.41;71.24
7200;BME280;3641;49.082;8.200;2022-11-20T13:27:20;99830.44;;;8.33;67.76
7200;BME280;3641;49.082;8.200;2022-11-20T13:30:00;99831.56;;;8.39;69.58
7200;BME280;3641;49.082;8.200;2022-11-20T13:32:27;99823.09;;;8.34;67.33
7200;BME280;3641;49.082;8.200;2022-11-20T13:34:59;99819.84;;;8.39;68.20
7200;BME280;3641;49.082;8.200;2022-11-20T13:37:32;99819.38;;;8.35;68.43
7200;BME280;3641;49.082;8.200;2022-11-20T13:40:21;99814.59;;;8.37;69.68
7200;BME280;3641;49.082;8.200;2022-11-20T13:42:56;99818.22;;;8.29;67.17
7200;BME280;3641;49.082;8.200;2022-11-20T13:45:25;99809.50;;;8.34;71.70